Time;durP1;ratioP1;P1;durP2;ratioP2;P2;SDS_P1;SDS_P2;PMS_P1;PMS_P2;Temp;Humidity;BMP_temperature;BMP_pressure;BME280_temperature;BME280_humidity;BME280_pressure;Samples;Min_cycle;Max_cycle;Signal;HPM_P1;HPM_P2
2022/07/25 00:01:16;;;;;;;9.82;5.53;;;22.70;88.80;;;;;;6196888;28;20046;-77
2022/07/25 00:04:18;;;;;;;9.88;6.32;;;22.60;89.40;;;;;;6207234;28;20042;-77
2022/07/25 00:07:20;;;;;;;8.90;5.93;;;22.50;90.00;;;;;;6246495;28;20170;-77
2022/07/25 00:10:22;;;;;;;14.60;6.65;;;22.50;90.10;;;;;;6245843;28;20037;-77
2022/07/25 00:13:25;;;;;;;9.77;5.75;;;22.50;90.30;;;;;;6245761;28;20052;-77
2022/07/25 00:16:26;;;;;;;6.88;5.82;;;22.30;90.30;;;;;;6245858;28;20056;-77
2022/07/25 00:19:28;;;;;;;7.68;5.88;;;22.20;90.60;;;;;;6246401;28;20056;-77
2022/07/25 00:22:30;;;;;;;6.85;5.53;;;22.20;90.80;;;;;;6245405;28;20414;-77
2022/07/25 00:25:32;;;;;;;9.55;5.20;;;22.00;90.90;;;;;;6245923;28;20049;-77
2022/07/25 00:28:35;;;;;;;7.25;5.03;;;22.10;91.40;;;;;;6237595;28;20443;-77
2022/07/25 00:31:37;;;;;;;8.30;6.10;;;22.00;91.70;;;;;;6221248;28;20042;-76
2022/07/25 00:34:39;;;;;;;5.63;5.07;;;22.00;91.60;;;;;;6220820;28;20041;-76
2022/07/25 00:37:40;;;;;;;8.13;6.55;;;22.00;91.70;;;;;;6221117;28;20076;-76
2022/07/25 00:40:42;;;;;;;11.43;5.97;;;21.90;92.00;;;;;;6220467;28;20057;-76
2022/07/25 00:43:46;;;;;;;6.68;5.38;;;21.80;92.10;;;;;;6220814;28;20518;-76
2022/07/25 00:46:47;;;;;;;8.75;6.05;;;21.80;92.30;;;;;;6221018;28;20057;-76
2022/07/25 00:49:49;;;;;;;7.40;5.75;;;21.80;92.60;;;;;;6220828;28;20038;-76
2022/07/25 00:52:51;;;;;;;7.25;5.07;;;21.70;92.70;;;;;;6220251;28;20050;-76
2022/07/25 00:55:54;;;;;;;10.20;5.80;;;21.60;93.20;;;;;;6220374;28;20053;-76
2022/07/25 00:58:57;;;;;;;7.80;5.78;;;21.50;93.00;;;;;;6225673;28;20054;-76
2022/07/25 01:01:59;;;;;;;9.43;5.82;;;21.50;93.20;;;;;;6222279;28;20050;-76
2022/07/25 01:05:00;;;;;;;9.02;6.60;;;21.40;93.30;;;;;;6220527;28;20052;-78
2022/07/25 01:08:03;;;;;;;9.55;5.45;;;21.40;93.40;;;;;;6220236;28;20616;-76
2022/07/25 01:11:05;;;;;;;8.07;5.68;;;21.30;93.50;;;;;;6219874;28;20041;-76
2022/07/25 01:14:08;;;;;;;9.73;6.97;;;21.30;93.50;;;;;;6219963;28;20045;-76
2022/07/25 01:17:12;;;;;;;5.97;5.32;;;21.20;93.70;;;;;;6220636;28;20041;-77
2022/07/25 01:20:16;;;;;;;9.65;5.68;;;21.20;93.80;;;;;;6221005;28;20045;-77
2022/07/25 01:23:18;;;;;;;8.57;6.30;;;21.10;93.90;;;;;;6221769;28;20061;-76
2022/07/25 01:26:20;;;;;;;7.97;6.13;;;21.10;94.00;;;;;;6220125;28;20042;-76
2022/07/25 01:29:21;;;;;;;8.23;5.47;;;21.10;94.10;;;;;;6221825;28;20535;-76
2022/07/25 01:32:23;;;;;;;7.47;6.03;;;21.10;94.20;;;;;;6219582;28;20542;-77
2022/07/25 01:35:26;;;;;;;14.73;6.75;;;21.10;94.30;;;;;;6220397;28;20073;-76
2022/07/25 01:38:28;;;;;;;8.57;5.65;;;21.10;94.30;;;;;;6220140;28;20471;-78
2022/07/25 01:41:29;;;;;;;7.85;6.28;;;21.00;94.60;;;;;;6219630;28;20057;-77
2022/07/25 01:44:31;;;;;;;8.07;6.13;;;20.90;94.60;;;;;;6220046;28;20050;-76
2022/07/25 01:47:33;;;;;;;7.85;6.05;;;20.80;94.60;;;;;;6220477;28;20057;-78
2022/07/25 01:50:36;;;;;;;10.20;5.63;;;20.90;94.70;;;;;;6219775;28;20578;-78
2022/07/25 01:53:38;;;;;;;8.88;5.45;;;20.90;94.70;;;;;;6221830;28;20046;-78
2022/07/25 01:56:43;;;;;;;9.63;5.68;;;20.90;94.80;;;;;;6221848;28;20042;-78
2022/07/25 01:59:45;;;;;;;7.75;5.75;;;20.80;94.90;;;;;;6222684;28;20049;-79
2022/07/25 02:02:46;;;;;;;9.80;6.00;;;20.80;94.90;;;;;;6238273;28;20053;-77
2022/07/25 02:05:50;;;;;;;6.85;5.75;;;20.80;95.00;;;;;;6245435;28;20057;-77
2022/07/25 02:08:51;;;;;;;10.10;5.90;;;20.80;95.10;;;;;;6244666;28;20053;-76
2022/07/25 02:11:53;;;;;;;8.50;6.18;;;20.70;95.10;;;;;;6244171;28;20045;-76
2022/07/25 02:14:55;;;;;;;8.70;6.05;;;20.70;95.00;;;;;;6244851;28;20049;-77
2022/07/25 02:17:56;;;;;;;8.25;5.55;;;20.70;95.00;;;;;;6244271;28;20045;-76
2022/07/25 02:20:59;;;;;;;7.15;6.03;;;20.70;95.10;;;;;;6244144;28;20049;-77
2022/07/25 02:24:01;;;;;;;9.88;6.53;;;20.70;95.20;;;;;;6248767;28;20140;-76
2022/07/25 02:27:03;;;;;;;8.25;6.22;;;20.70;95.50;;;;;;6250444;28;20049;-77
2022/07/25 02:30:06;;;;;;;6.25;5.63;;;20.80;95.20;;;;;;6248102;28;20037;-76
2022/07/25 02:33:08;;;;;;;7.47;5.00;;;20.80;95.30;;;;;;6248511;28;20053;-78
2022/07/25 02:36:12;;;;;;;9.02;6.50;;;20.80;95.30;;;;;;6249863;28;20045;-78
2022/07/25 02:39:14;;;;;;;6.82;5.72;;;20.70;95.30;;;;;;6249708;28;20057;-77
2022/07/25 02:42:16;;;;;;;9.00;5.80;;;20.70;95.40;;;;;;6249298;28;20052;-78
2022/07/25 02:45:18;;;;;;;7.25;5.85;;;20.60;95.30;;;;;;6249067;28;20050;-77
2022/07/25 02:48:19;;;;;;;11.13;6.90;;;20.60;95.60;;;;;;6248309;28;20693;-78
2022/07/25 02:51:22;;;;;;;7.93;5.72;;;20.40;95.70;;;;;;6248984;28;20045;-77
2022/07/25 02:54:24;;;;;;;10.32;6.53;;;20.40;95.90;;;;;;6252216;28;20050;-77
2022/07/25 02:57:26;;;;;;;9.60;6.25;;;20.30;96.00;;;;;;6252525;28;20045;-77
2022/07/25 03:00:29;;;;;;;8.48;5.88;;;20.30;96.10;;;;;;6246319;28;20475;-77
2022/07/25 03:03:30;;;;;;;7.72;5.60;;;20.30;96.10;;;;;;6228975;28;20573;-77
2022/07/25 03:06:33;;;;;;;9.23;5.72;;;20.30;96.10;;;;;;6223930;28;20046;-78
2022/07/25 03:09:35;;;;;;;10.38;5.93;;;20.30;96.20;;;;;;6223710;28;20084;-78
2022/07/25 03:12:37;;;;;;;8.88;5.53;;;20.20;96.30;;;;;;6223201;28;20046;-78
2022/07/25 03:15:39;;;;;;;9.00;6.45;;;20.20;96.40;;;;;;6224699;28;20643;-78
2022/07/25 03:18:41;;;;;;;7.07;5.85;;;20.20;96.50;;;;;;6223301;28;20046;-77
2022/07/25 03:21:44;;;;;;;10.80;6.90;;;20.10;96.40;;;;;;6223048;28;20515;-78
2022/07/25 03:24:46;;;;;;;8.63;6.05;;;20.10;96.50;;;;;;6223608;28;20053;-78
2022/07/25 03:27:48;;;;;;;6.35;5.55;;;20.00;96.60;;;;;;6224028;28;20058;-77
2022/07/25 03:30:50;;;;;;;7.28;6.07;;;20.00;96.60;;;;;;6223568;28;20280;-77
2022/07/25 03:33:52;;;;;;;7.78;5.90;;;19.90;96.50;;;;;;6222220;28;20053;-77
2022/07/25 03:36:55;;;;;;;8.23;6.00;;;20.00;96.50;;;;;;6222607;28;20054;-77
2022/07/25 03:39:57;;;;;;;7.45;6.00;;;20.00;96.50;;;;;;6223733;28;20062;-77
2022/07/25 03:42:59;;;;;;;8.32;5.80;;;19.90;96.60;;;;;;6223363;28;20046;-77
2022/07/25 03:46:00;;;;;;;9.43;7.72;;;19.90;96.60;;;;;;6223060;28;20056;-77
2022/07/25 03:49:02;;;;;;;7.03;5.90;;;20.00;96.60;;;;;;6222891;28;20045;-77
2022/07/25 03:52:05;;;;;;;8.25;6.82;;;20.00;96.40;;;;;;6222390;28;20137;-77
2022/07/25 03:55:09;;;;;;;9.75;6.72;;;19.90;96.50;;;;;;6223303;28;20057;-77
2022/07/25 03:58:11;;;;;;;7.57;5.97;;;19.90;96.40;;;;;;6222686;28;20050;-77
2022/07/25 04:01:12;;;;;;;10.63;8.10;;;19.90;96.60;;;;;;6224608;28;20037;-77
2022/07/25 04:04:14;;;;;;;10.73;6.15;;;19.80;96.60;;;;;;6231128;28;20053;-77
2022/07/25 04:07:18;;;;;;;12.43;6.65;;;19.90;96.60;;;;;;6223003;28;20050;-77
2022/07/25 04:10:19;;;;;;;9.65;6.18;;;19.90;96.60;;;;;;6222897;28;20655;-77
2022/07/25 04:13:21;;;;;;;7.53;6.30;;;19.80;96.70;;;;;;6222366;28;20392;-77
2022/07/25 04:16:23;;;;;;;9.82;6.47;;;19.80;96.70;;;;;;6221891;28;20073;-77
2022/07/25 04:19:24;;;;;;;8.02;6.30;;;19.70;96.70;;;;;;6223541;28;20061;-77
2022/07/25 04:22:27;;;;;;;11.50;6.63;;;19.80;96.80;;;;;;6222621;28;20411;-76
2022/07/25 04:25:29;;;;;;;10.40;7.00;;;19.90;96.80;;;;;;6223351;28;20056;-77
2022/07/25 04:28:31;;;;;;;7.43;6.13;;;19.90;96.70;;;;;;6223764;28;20053;-77
2022/07/25 04:31:33;;;;;;;9.93;6.57;;;20.00;96.60;;;;;;6224711;28;20096;-77
2022/07/25 04:34:35;;;;;;;10.65;5.97;;;20.10;96.50;;;;;;6224353;28;20076;-77
2022/07/25 04:37:38;;;;;;;7.97;6.65;;;20.20;96.40;;;;;;6224459;28;20052;-77
2022/07/25 04:40:40;;;;;;;8.27;5.90;;;20.30;96.30;;;;;;6223770;28;20053;-77
2022/07/25 04:43:42;;;;;;;12.07;6.18;;;20.50;96.10;;;;;;6222310;28;20496;-77
2022/07/25 04:46:44;;;;;;;7.35;6.00;;;20.60;95.80;;;;;;6221745;28;20049;-77
2022/07/25 04:49:45;;;;;;;8.52;6.20;;;20.90;95.50;;;;;;6221671;28;20068;-77
2022/07/25 04:52:48;;;;;;;10.93;7.00;;;21.40;94.60;;;;;;6221234;28;20046;-77
2022/07/25 04:55:50;;;;;;;12.90;8.90;;;21.90;93.90;;;;;;6222424;28;20130;-77
2022/07/25 04:58:52;;;;;;;7.28;5.40;;;22.10;93.20;;;;;;6222490;28;20054;-77
2022/07/25 05:01:54;;;;;;;9.07;5.95;;;22.10;93.10;;;;;;6222204;28;20046;-77
2022/07/25 05:04:55;;;;;;;8.77;6.03;;;22.10;93.10;;;;;;6229715;28;20542;-77
2022/07/25 05:07:59;;;;;;;7.85;5.57;;;22.30;93.10;;;;;;6234963;28;20057;-78
2022/07/25 05:11:01;;;;;;;8.95;6.07;;;22.60;92.90;;;;;;6234520;28;20130;-78
2022/07/25 05:14:03;;;;;;;8.20;6.25;;;22.80;92.20;;;;;;6234762;28;20514;-77
2022/07/25 05:17:05;;;;;;;8.18;5.40;;;23.20;91.90;;;;;;6233941;28;20057;-79
2022/07/25 05:20:08;;;;;;;11.50;5.90;;;23.80;91.00;;;;;;6234799;28;20076;-77
2022/07/25 05:23:11;;;;;;;10.70;5.78;;;25.10;87.80;;;;;;6236136;28;20050;-77
2022/07/25 05:26:13;;;;;;;7.53;5.68;;;26.80;81.80;;;;;;6234481;28;20067;-77
2022/07/25 05:29:14;;;;;;;15.38;5.43;;;28.40;75.60;;;;;;6234463;28;20045;-78
2022/07/25 05:32:16;;;;;;;6.22;4.93;;;29.90;69.50;;;;;;6232782;28;20049;-78
2022/07/25 05:35:18;;;;;;;12.18;6.07;;;31.30;64.20;;;;;;6234877;28;20050;-78
2022/07/25 05:38:21;;;;;;;8.55;4.95;;;32.60;60.00;;;;;;6228295;28;20046;-78
2022/07/25 05:41:23;;;;;;;6.03;4.72;;;33.60;56.20;;;;;;6224672;28;20419;-78
2022/07/25 05:44:24;;;;;;;7.63;5.20;;;34.70;53.00;;;;;;6222173;28;20132;-78
2022/07/25 05:47:26;;;;;;;4.30;3.88;;;35.60;50.00;;;;;;6223050;28;20053;-78
2022/07/25 05:50:28;;;;;;;10.80;4.07;;;36.50;47.60;;;;;;6222804;28;20064;-78
2022/07/25 05:53:31;;;;;;;5.30;4.40;;;37.30;45.70;;;;;;6223414;28;20057;-79
2022/07/25 05:56:33;;;;;;;4.97;3.90;;;38.00;44.00;;;;;;6223446;28;20050;-79
2022/07/25 05:59:34;;;;;;;6.25;3.42;;;38.70;42.60;;;;;;6240225;28;20601;-78
2022/07/25 06:02:36;;;;;;;5.90;4.25;;;39.30;41.30;;;;;;6231622;28;20041;-77
2022/07/25 06:05:38;;;;;;;6.45;4.88;;;39.80;40.20;;;;;;6249768;28;20048;-79
2022/07/25 06:08:41;;;;;;;6.13;4.05;;;40.40;39.20;;;;;;6252815;28;20129;-78
2022/07/25 06:11:43;;;;;;;4.50;4.05;;;40.90;38.00;;;;;;6259840;28;20045;-78
2022/07/25 06:14:45;;;;;;;5.68;3.67;;;41.20;37.50;;;;;;6249071;28;20061;-76
2022/07/25 06:17:47;;;;;;;5.03;4.20;;;41.40;36.90;;;;;;6248548;28;20048;-77
2022/07/25 06:20:48;;;;;;;5.32;4.38;;;41.80;36.20;;;;;;6249727;28;20080;-78
2022/07/25 06:23:51;;;;;;;4.85;3.90;;;42.30;35.50;;;;;;6249696;28;20060;-78
2022/07/25 06:26:53;;;;;;;6.03;4.22;;;42.60;35.00;;;;;;6250936;28;20053;-76
2022/07/25 06:29:55;;;;;;;3.92;3.40;;;42.80;34.50;;;;;;6250504;28;20047;-76
2022/07/25 06:32:56;;;;;;;7.22;3.63;;;43.10;34.30;;;;;;6249796;28;20049;-77
2022/07/25 06:35:58;;;;;;;5.47;3.00;;;43.80;33.50;;;;;;6248197;28;20050;-77
2022/07/25 06:39:02;;;;;;;6.05;3.70;;;44.00;32.90;;;;;;6248388;28;20411;-77
2022/07/25 06:42:04;;;;;;;4.32;3.30;;;44.30;32.70;;;;;;6247798;28;20057;-77
2022/07/25 06:45:08;;;;;;;4.60;3.33;;;44.70;32.20;;;;;;6247525;28;20137;-76
2022/07/25 06:48:10;;;;;;;3.95;3.38;;;45.00;31.20;;;;;;6248850;28;20084;-76
2022/07/25 06:51:11;;;;;;;5.38;3.33;;;44.80;31.50;;;;;;6247898;28;20077;-77
2022/07/25 06:54:14;;;;;;;4.20;3.33;;;44.90;31.10;;;;;;6247621;28;20058;-77
2022/07/25 06:57:16;;;;;;;6.00;3.00;;;45.30;31.00;;;;;;6247536;28;20053;-77
2022/07/25 07:00:18;;;;;;;4.10;3.42;;;45.50;30.40;;;;;;6247790;28;20061;-77
2022/07/25 07:03:20;;;;;;;3.97;3.38;;;45.60;30.50;;;;;;6247711;28;20049;-76
2022/07/25 07:06:21;;;;;;;5.70;3.05;;;45.80;30.40;;;;;;6232863;28;20046;-76
2022/07/25 07:09:25;;;;;;;7.50;3.63;;;46.10;30.10;;;;;;6222187;28;20052;-77
2022/07/25 07:12:26;;;;;;;4.32;2.60;;;46.60;29.80;;;;;;6222439;28;20160;-77
2022/07/25 07:15:28;;;;;;;5.32;3.40;;;47.00;29.70;;;;;;6223273;28;20049;-77
2022/07/25 07:18:30;;;;;;;4.05;2.90;;;47.30;29.40;;;;;;6223081;28;20046;-77
2022/07/25 07:21:31;;;;;;;5.07;2.45;;;47.60;29.10;;;;;;6222627;28;20041;-77
2022/07/25 07:24:34;;;;;;;7.35;3.30;;;47.80;29.00;;;;;;6223306;28;20053;-77
2022/07/25 07:27:36;;;;;;;5.63;3.00;;;48.10;28.80;;;;;;6225168;28;20057;-77
2022/07/25 07:30:38;;;;;;;4.40;3.33;;;48.30;28.60;;;;;;6222721;28;20499;-77
2022/07/25 07:33:40;;;;;;;4.68;3.25;;;48.10;28.30;;;;;;6223227;28;20046;-76
2022/07/25 07:36:41;;;;;;;5.70;2.97;;;47.80;28.40;;;;;;6222728;28;20042;-77
2022/07/25 07:39:44;;;;;;;3.83;3.10;;;47.60;28.60;;;;;;6223528;28;20053;-77
2022/07/25 07:42:48;;;;;;;4.40;3.10;;;47.60;28.60;;;;;;6222326;28;20419;-76
2022/07/25 07:45:49;;;;;;;6.28;3.55;;;47.60;28.80;;;;;;6222427;28;20061;-77
2022/07/25 07:48:51;;;;;;;11.52;2.83;;;47.80;29.00;;;;;;6222557;28;20046;-77
2022/07/25 07:51:53;;;;;;;8.40;3.08;;;47.90;28.50;;;;;;6222024;28;20041;-77
2022/07/25 07:58:17;;;;;;;6.90;2.85;;;48.60;28.20;;;;;;6222302;28;20054;-77
2022/07/25 08:01:19;;;;;;;4.20;2.55;;;48.30;27.90;;;;;;6222240;28;20076;-76
2022/07/25 08:04:21;;;;;;;9.35;3.03;;;47.90;28.10;;;;;;6222396;28;20104;-76
2022/07/25 08:07:23;;;;;;;5.72;2.40;;;47.90;28.50;;;;;;6234389;28;20042;-77
2022/07/25 08:10:28;;;;;;;5.38;3.00;;;48.20;28.40;;;;;;6246833;28;20045;-77
2022/07/25 08:13:32;;;;;;;6.00;3.88;;;48.30;28.20;;;;;;6246658;28;20435;-76
2022/07/25 08:16:34;;;;;;;3.28;2.95;;;48.30;28.30;;;;;;6247230;28;20056;-77
2022/07/25 08:19:36;;;;;;;3.85;3.20;;;48.60;28.00;;;;;;6247228;28;20049;-77
2022/07/25 08:22:39;;;;;;;10.18;2.78;;;48.60;27.80;;;;;;6246227;28;20423;-77
2022/07/25 08:25:43;;;;;;;4.28;2.90;;;48.10;28.00;;;;;;6246049;28;20097;-77
2022/07/25 08:28:45;;;;;;;3.38;2.42;;;47.60;28.20;;;;;;6182711;28;20073;-77
2022/07/25 08:31:47;;;;;;;4.05;3.05;;;47.50;28.40;;;;;;6180523;28;20046;-76
2022/07/25 08:34:48;;;;;;;4.95;2.58;;;47.60;28.40;;;;;;6232881;28;20060;-76
2022/07/25 08:37:51;;;;;;;4.88;3.20;;;47.60;28.30;;;;;;6219252;28;20046;-77
2022/07/25 08:40:55;;;;;;;2.88;2.60;;;47.10;28.60;;;;;;6223932;28;20077;-77
2022/07/25 08:43:57;;;;;;;8.55;2.88;;;46.40;28.80;;;;;;6223045;28;20053;-77
2022/07/25 08:46:59;;;;;;;6.70;2.60;;;44.40;29.90;;;;;;6221671;28;20519;-77
2022/07/25 08:50:04;;;;;;;4.65;2.72;;;42.60;31.40;;;;;;6220648;28;20041;-76
2022/07/25 08:53:06;;;;;;;7.70;3.67;;;41.00;33.00;;;;;;6226238;28;20053;-78
2022/07/25 08:56:09;;;;;;;7.57;3.05;;;39.60;33.90;;;;;;6229681;28;20060;-78
2022/07/25 08:59:11;;;;;;;5.15;3.13;;;38.60;35.40;;;;;;6226366;28;20042;-77
2022/07/25 09:02:14;;;;;;;20.65;4.00;;;38.10;35.90;;;;;;6228020;28;20046;-77
2022/07/25 09:05:16;;;;;;;13.50;2.95;;;37.60;36.70;;;;;;6205089;28;20042;-78
2022/07/25 09:08:19;;;;;;;8.30;3.38;;;37.40;37.00;;;;;;6231374;28;20046;-77
2022/07/25 09:11:30;;;;;;;5.43;3.22;;;37.20;37.40;;;;;;6247352;28;20045;-78
2022/07/25 09:14:41;;;;;;;4.55;3.35;;;37.10;37.30;;;;;;6247633;28;20068;-77
2022/07/25 09:17:50;;;;;;;7.35;3.45;;;37.00;38.00;;;;;;6244701;28;20530;-76
2022/07/25 09:20:53;;;;;;;6.38;3.88;;;36.90;37.80;;;;;;6223209;28;20061;-78
2022/07/25 09:23:55;;;;;;;7.80;3.40;;;36.80;38.20;;;;;;6200961;28;20046;-78
2022/07/25 09:27:00;;;;;;;4.00;3.53;;;37.00;38.40;;;;;;6200296;28;20061;-78
2022/07/25 09:30:12;;;;;;;4.45;3.50;;;37.10;37.70;;;;;;6200542;28;20042;-77
2022/07/25 09:33:14;;;;;;;4.68;3.33;;;37.00;37.90;;;;;;6200269;28;20061;-78
2022/07/25 09:36:16;;;;;;;4.93;3.10;;;37.10;38.10;;;;;;6200171;28;20057;-78
2022/07/25 09:39:17;;;;;;;7.38;3.03;;;37.20;37.70;;;;;;6201301;28;20058;-78
2022/07/25 09:42:26;;;;;;;5.88;3.50;;;37.40;37.60;;;;;;6200535;28;20047;-78
2022/07/25 09:45:28;;;;;;;5.05;3.30;;;37.70;37.70;;;;;;6200396;28;20050;-78
2022/07/25 09:48:30;;;;;;;6.97;3.80;;;38.00;36.40;;;;;;6203237;28;20060;-78
2022/07/25 09:51:33;;;;;;;4.32;3.70;;;38.10;36.40;;;;;;6218385;28;20054;-78
2022/07/25 09:54:35;;;;;;;4.55;3.20;;;38.10;36.30;;;;;;6201824;28;20057;-78
2022/07/25 09:57:38;;;;;;;6.18;3.10;;;38.20;35.50;;;;;;6201179;28;20053;-78
2022/07/25 10:00:41;;;;;;;4.30;2.67;;;38.20;35.70;;;;;;6201051;28;20050;-78
2022/07/25 10:03:50;;;;;;;4.15;3.03;;;38.30;35.40;;;;;;6200730;28;20050;-78
2022/07/25 10:07:04;;;;;;;4.75;3.13;;;38.50;35.40;;;;;;6211418;28;20076;-76
2022/07/25 10:10:07;;;;;;;3.58;2.60;;;38.90;34.10;;;;;;6214863;28;20057;-77
2022/07/25 10:13:14;;;;;;;5.00;2.95;;;39.80;33.70;;;;;;6203032;28;20049;-79
2022/07/25 10:16:17;;;;;;;7.75;3.03;;;40.40;32.90;;;;;;6201636;28;20130;-78
2022/07/25 10:19:41;;;;;;;2.95;2.35;;;40.30;33.10;;;;;;6210710;28;20064;-78
2022/07/25 10:22:44;;;;;;;3.50;2.63;;;40.00;33.30;;;;;;6202168;28;20046;-78
2022/07/25 10:25:46;;;;;;;4.25;3.38;;;39.50;33.30;;;;;;6203477;28;20050;-77
2022/07/25 10:28:52;;;;;;;4.43;2.55;;;39.00;34.00;;;;;;6201833;28;20047;-78
2022/07/25 10:32:04;;;;;;;5.32;2.90;;;38.60;34.50;;;;;;6201043;28;20055;-78
2022/07/25 10:35:15;;;;;;;4.47;3.00;;;38.20;35.00;;;;;;6201609;28;20061;-77
2022/07/25 10:38:24;;;;;;;2.83;2.25;;;38.10;35.10;;;;;;6206050;28;20046;-78
2022/07/25 10:41:27;;;;;;;3.42;3.13;;;38.00;35.00;;;;;;6223889;28;20419;-77
2022/07/25 10:44:41;;;;;;;4.25;2.58;;;37.90;35.50;;;;;;6227127;28;20049;-77
2022/07/25 10:47:53;;;;;;;3.58;2.80;;;38.00;35.60;;;;;;6229304;28;20057;-78
2022/07/25 10:50:59;;;;;;;9.88;3.00;;;38.10;35.50;;;;;;6226563;28;20056;-77
2022/07/25 10:54:11;;;;;;;6.80;3.38;;;38.40;35.40;;;;;;6204052;28;20069;-78
2022/07/25 10:57:15;;;;;;;8.10;2.92;;;38.60;35.20;;;;;;6204747;28;20398;-76
2022/07/25 11:00:19;;;;;;;3.85;3.15;;;38.50;34.90;;;;;;6204466;28;20523;-78
2022/07/25 11:03:20;;;;;;;3.45;3.03;;;38.50;34.80;;;;;;6204203;28;20047;-78
2022/07/25 11:06:41;;;;;;;8.77;2.83;;;38.30;34.90;;;;;;6203621;28;20053;-78
2022/07/25 11:09:44;;;;;;;4.10;3.00;;;38.20;35.40;;;;;;6203911;28;20057;-78
2022/07/25 11:12:46;;;;;;;4.15;3.00;;;38.20;35.10;;;;;;6203156;28;20078;-77
2022/07/25 11:15:49;;;;;;;5.38;3.15;;;37.90;35.00;;;;;;6202889;28;20138;-78
2022/07/25 11:18:53;;;;;;;3.95;2.70;;;37.80;35.30;;;;;;6209405;28;20070;-77
2022/07/25 11:21:56;;;;;;;5.78;2.80;;;37.80;35.60;;;;;;6217895;28;20046;-77
2022/07/25 11:24:59;;;;;;;3.13;2.65;;;37.80;35.50;;;;;;6201977;28;20053;-77
2022/07/25 11:28:02;;;;;;;4.47;2.88;;;38.00;35.80;;;;;;6202992;28;20146;-78
2022/07/25 11:31:06;;;;;;;4.75;2.83;;;38.30;35.60;;;;;;6204854;28;20050;-77
2022/07/25 11:34:07;;;;;;;4.30;2.28;;;38.80;35.00;;;;;;6205038;28;20126;-78
2022/07/25 11:37:11;;;;;;;4.18;2.22;;;39.00;34.00;;;;;;6203803;28;20057;-78
2022/07/25 11:40:15;;;;;;;7.30;2.63;;;39.10;33.90;;;;;;6203256;28;20054;-77
2022/07/25 11:43:20;;;;;;;5.20;2.60;;;39.20;33.80;;;;;;6203980;28;20043;-78
2022/07/25 11:46:23;;;;;;;7.00;3.15;;;39.40;34.00;;;;;;6203553;28;20053;-78
2022/07/25 11:49:25;;;;;;;5.85;2.40;;;39.60;33.40;;;;;;6213857;28;20052;-79
2022/07/25 11:52:29;;;;;;;3.55;2.58;;;40.00;33.20;;;;;;6214103;28;20066;-80
2022/07/25 11:55:35;;;;;;;6.55;2.53;;;40.10;32.80;;;;;;6205313;28;20512;-78
2022/07/25 11:58:36;;;;;;;3.67;2.25;;;40.20;32.90;;;;;;6204782;28;20189;-79
2022/07/25 12:01:42;;;;;;;6.38;2.28;;;40.40;33.20;;;;;;6206631;28;20046;-78
2022/07/25 12:04:53;;;;;;;3.70;2.30;;;40.60;32.60;;;;;;6205879;28;20046;-79
2022/07/25 12:07:55;;;;;;;5.72;2.42;;;40.80;32.70;;;;;;6204991;28;20052;-79
2022/07/25 12:10:57;;;;;;;11.10;2.70;;;41.00;32.90;;;;;;6205362;28;20050;-78
2022/07/25 12:14:04;;;;;;;3.00;2.53;;;40.90;33.00;;;;;;6204277;28;20038;-78
2022/07/25 12:17:07;;;;;;;7.80;2.67;;;40.60;33.00;;;;;;6205447;28;20093;-78
2022/07/25 12:20:14;;;;;;;3.55;2.35;;;40.40;33.50;;;;;;6223181;28;20527;-78
2022/07/25 12:23:17;;;;;;;4.43;2.72;;;40.30;33.20;;;;;;6208287;28;20050;-77
2022/07/25 12:26:19;;;;;;;3.55;2.45;;;40.20;33.20;;;;;;6203838;28;20050;-79
2022/07/25 12:29:21;;;;;;;6.68;2.55;;;40.20;33.40;;;;;;6202916;28;20057;-79
2022/07/25 12:32:24;;;;;;;5.88;3.10;;;40.10;33.50;;;;;;6206367;28;20500;-78
2022/07/25 12:35:26;;;;;;;3.33;2.40;;;40.00;33.70;;;;;;6204997;28;20051;-78
2022/07/25 12:38:28;;;;;;;7.15;2.90;;;40.20;33.70;;;;;;6204849;28;20046;-79
2022/07/25 12:41:30;;;;;;;3.67;2.55;;;40.40;33.50;;;;;;6202796;28;20204;-77
2022/07/25 12:44:32;;;;;;;5.93;2.45;;;40.50;33.10;;;;;;6202799;28;20046;-81
2022/07/25 12:47:35;;;;;;;8.13;2.70;;;40.50;32.50;;;;;;6203924;28;20500;-78
2022/07/25 12:50:37;;;;;;;4.93;2.40;;;40.20;33.00;;;;;;6224928;28;20052;-79
2022/07/25 12:53:39;;;;;;;8.05;3.42;;;40.00;33.50;;;;;;6202656;28;20042;-79
2022/07/25 12:56:40;;;;;;;4.22;2.90;;;39.90;33.70;;;;;;6202239;28;20069;-80
2022/07/25 12:59:43;;;;;;;6.57;2.60;;;39.70;33.60;;;;;;6200365;28;20058;-77
2022/07/25 13:02:46;;;;;;;5.45;2.97;;;39.60;33.90;;;;;;6201836;28;20061;-77
2022/07/25 13:05:48;;;;;;;3.22;2.88;;;39.60;34.00;;;;;;6201189;28;20057;-77
2022/07/25 13:08:49;;;;;;;6.43;2.70;;;39.70;34.10;;;;;;6202536;28;20058;-78
2022/07/25 13:11:51;;;;;;;5.10;2.88;;;39.70;33.90;;;;;;6199150;28;20053;-76
2022/07/25 13:14:53;;;;;;;3.28;2.67;;;39.30;34.20;;;;;;6198156;28;20043;-76
2022/07/25 13:17:56;;;;;;;13.68;2.95;;;38.90;34.80;;;;;;6197407;28;20050;-76
2022/07/25 13:20:59;;;;;;;3.35;2.70;;;38.70;35.20;;;;;;6217660;28;20072;-75
2022/07/25 13:24:01;;;;;;;5.28;2.72;;;38.50;35.50;;;;;;6197314;28;20054;-76
2022/07/25 13:27:04;;;;;;;3.40;2.60;;;38.40;35.50;;;;;;6198384;28;20050;-76
2022/07/25 13:30:07;;;;;;;3.47;2.95;;;38.40;35.20;;;;;;6197735;28;20046;-76
2022/07/25 13:33:10;;;;;;;3.20;2.47;;;38.30;35.20;;;;;;6198045;28;20046;-76
2022/07/25 13:36:12;;;;;;;5.55;3.00;;;38.30;35.40;;;;;;6198814;28;20046;-77
2022/07/25 13:39:14;;;;;;;3.17;2.60;;;38.20;35.40;;;;;;6200385;28;20077;-77
2022/07/25 13:42:15;;;;;;;3.95;2.72;;;38.10;35.50;;;;;;6203961;28;20053;-78
2022/07/25 13:45:17;;;;;;;2.90;2.35;;;38.00;35.70;;;;;;6208243;28;20047;-76
2022/07/25 13:48:20;;;;;;;4.85;2.90;;;37.90;35.90;;;;;;6211680;28;20074;-77
2022/07/25 13:51:22;;;;;;;4.38;2.60;;;38.00;36.10;;;;;;6222114;28;20052;-76
2022/07/25 13:54:23;;;;;;;8.13;3.42;;;38.20;36.10;;;;;;6202746;28;20058;-76
2022/07/25 13:57:25;;;;;;;4.65;2.78;;;38.40;36.00;;;;;;6199782;28;20050;-77
2022/07/25 14:00:27;;;;;;;4.15;2.88;;;38.40;35.60;;;;;;6200488;28;20061;-78
2022/07/25 14:03:30;;;;;;;8.45;2.85;;;38.30;34.90;;;;;;6200405;28;20389;-77
2022/07/25 14:06:33;;;;;;;7.40;3.15;;;37.90;39.50;;;;;;6215240;28;20050;-75
2022/07/25 14:09:35;;;;;;;5.72;2.75;;;37.30;42.40;;;;;;6230526;28;20046;-76
2022/07/25 14:12:38;;;;;;;6.75;3.75;;;36.50;42.30;;;;;;6237796;28;20053;-76
2022/07/25 14:15:40;;;;;;;8.18;3.42;;;35.80;42.50;;;;;;6235396;28;20173;-78
2022/07/25 14:18:43;;;;;;;15.35;3.83;;;35.20;47.50;;;;;;6240320;28;20125;-77
2022/07/25 14:21:44;;;;;;;18.67;5.05;;;34.60;50.10;;;;;;6225874;28;20403;-79
2022/07/25 14:24:46;;;;;;;6.82;3.65;;;34.10;53.40;;;;;;6226429;28;20057;-80
2022/07/25 14:27:48;;;;;;;6.20;3.55;;;33.50;56.60;;;;;;6226163;28;20046;-79
2022/07/25 14:30:50;;;;;;;9.50;4.28;;;32.90;58.50;;;;;;6233860;28;20050;-79
2022/07/25 14:33:53;;;;;;;4.72;3.30;;;32.40;60.70;;;;;;6248313;28;20037;-79
2022/07/25 14:36:55;;;;;;;10.63;5.15;;;32.20;61.10;;;;;;6248845;28;20049;-79
2022/07/25 14:39:57;;;;;;;4.95;3.83;;;32.10;60.80;;;;;;6248796;28;20057;-79
2022/07/25 14:42:58;;;;;;;9.68;3.70;;;32.10;60.20;;;;;;6249656;28;20049;-79
2022/07/25 14:46:00;;;;;;;14.05;3.70;;;32.10;60.50;;;;;;6250047;28;20060;-78
2022/07/25 14:49:04;;;;;;;5.80;3.67;;;32.20;58.70;;;;;;6242712;28;20050;-79
2022/07/25 14:52:05;;;;;;;6.97;3.53;;;32.30;58.80;;;;;;6223674;28;20582;-78
2022/07/25 14:55:09;;;;;;;5.03;3.13;;;32.50;59.80;;;;;;6224741;28;20046;-79
2022/07/25 14:58:12;;;;;;;5.75;3.55;;;32.80;58.00;;;;;;6224552;28;20054;-80
2022/07/25 15:01:17;;;;;;;8.93;3.20;;;33.10;56.90;;;;;;6224091;28;20045;-79
2022/07/25 15:04:21;;;;;;;5.53;3.10;;;33.40;54.50;;;;;;6224384;28;20132;-79
2022/07/25 15:07:23;;;;;;;6.10;3.55;;;33.50;54.20;;;;;;6225314;28;20056;-77
2022/07/25 15:10:25;;;;;;;4.53;3.10;;;33.80;54.40;;;;;;6225075;28;20132;-79
2022/07/25 15:13:27;;;;;;;6.55;3.63;;;33.80;54.00;;;;;;6224666;28;20053;-78
2022/07/25 15:16:28;;;;;;;6.03;3.00;;;33.90;53.30;;;;;;6224423;28;20534;-79
2022/07/25 15:19:32;;;;;;;7.10;2.70;;;34.10;52.10;;;;;;6217806;28;20050;-78
2022/07/25 15:22:33;;;;;;;4.38;2.72;;;34.30;49.60;;;;;;6222774;28;20057;-79
2022/07/25 15:25:35;;;;;;;4.15;2.75;;;34.70;49.20;;;;;;6223970;28;20050;-79
2022/07/25 15:28:37;;;;;;;5.70;2.75;;;34.90;47.30;;;;;;6208985;28;20049;-78
2022/07/25 15:31:39;;;;;;;4.40;2.38;;;35.00;45.60;;;;;;6204513;28;20046;-78
2022/07/25 15:34:42;;;;;;;4.53;2.30;;;35.10;44.30;;;;;;6217250;28;20416;-77
2022/07/25 15:37:44;;;;;;;6.20;2.30;;;35.20;44.00;;;;;;6223577;28;20423;-78
2022/07/25 15:40:46;;;;;;;4.40;2.58;;;35.40;43.80;;;;;;6224095;28;20050;-78
2022/07/25 15:43:48;;;;;;;4.28;2.10;;;35.70;42.50;;;;;;6223651;28;20056;-77
2022/07/25 15:46:50;;;;;;;16.58;2.40;;;35.80;41.20;;;;;;6224512;28;20046;-78
2022/07/25 15:49:53;;;;;;;9.27;2.67;;;36.10;41.50;;;;;;6209756;28;20050;-78
2022/07/25 15:52:54;;;;;;;6.25;2.45;;;36.20;41.20;;;;;;6199130;28;20050;-78